Time;durP1;ratioP1;P1;durP2;ratioP2;P2;SDS_P1;SDS_P2;PMS_P1;PMS_P2;Temp;Humidity;BMP_temperature;BMP_pressure;BME280_temperature;BME280_humidity;BME280_pressure;Samples;Min_cycle;Max_cycle;Signal;HPM_P1;HPM_P2
2023/03/08 00:01:37;;;;;;;23.70;16.60;;;;;;;-1.89;100.00;100101.03;6153325;23;20009;-79
2023/03/08 00:04:02;;;;;;;26.38;16.60;;;;;;;-1.89;100.00;100100.22;6152934;23;20014;-78
2023/03/08 00:06:28;;;;;;;26.70;16.80;;;;;;;-1.89;100.00;100095.16;6152642;23;20104;-80
2023/03/08 00:08:55;;;;;;;26.70;18.10;;;;;;;-1.90;100.00;100094.31;6153384;23;20089;-80
2023/03/08 00:11:21;;;;;;;29.42;18.63;;;;;;;-2.06;100.00;100068.56;6153252;23;20090;-79
2023/03/08 00:13:46;;;;;;;31.70;20.17;;;;;;;-2.29;100.00;100024.44;6252950;22;20038;-80
2023/03/08 00:16:12;;;;;;;30.27;21.63;;;;;;;-2.02;100.00;100072.69;6276482;22;20011;-75
2023/03/08 00:18:38;;;;;;;31.38;21.65;;;;;;;-1.99;100.00;100065.88;6276618;22;19999;-78
2023/03/08 00:21:12;;;;;;;33.38;22.20;;;;;;;-2.07;100.00;100058.47;6276342;22;20003;-79
2023/03/08 00:23:38;;;;;;;29.83;21.13;;;;;;;-1.93;100.00;100080.94;6276108;22;20445;-78
2023/03/08 00:26:03;;;;;;;30.48;21.35;;;;;;;-1.94;100.00;100072.50;6276256;22;20034;-79
2023/03/08 00:28:29;;;;;;;30.77;20.85;;;;;;;-2.07;100.00;100058.47;6248962;22;20030;-79
2023/03/08 00:31:01;;;;;;;34.35;22.30;;;;;;;-1.92;100.00;100067.41;6276454;22;20008;-77
2023/03/08 00:33:27;;;;;;;35.30;24.48;;;;;;;-1.85;100.00;100079.88;6249060;22;20010;-77
2023/03/08 00:36:01;;;;;;;39.38;27.50;;;;;;;-1.78;100.00;100085.59;6276427;22;20074;-80
2023/03/08 00:38:29;;;;;;;46.92;28.15;;;;;;;-1.81;100.00;100058.69;6276186;22;20310;-79
2023/03/08 00:40:54;;;;;;;45.10;29.00;;;;;;;-1.87;100.00;100032.69;6276484;22;20010;-78
2023/03/08 00:43:20;;;;;;;49.90;31.77;;;;;;;-1.53;100.00;100073.19;6249138;22;20008;-79
2023/03/08 00:45:46;;;;;;;48.30;31.02;;;;;;;-1.55;100.00;100065.63;6276381;22;20004;-79
2023/03/08 00:48:11;;;;;;;51.50;33.40;;;;;;;-1.67;100.00;100039.78;6276437;22;20376;-80
2023/03/08 00:50:36;;;;;;;51.67;34.95;;;;;;;-1.46;100.00;100079.75;6276297;22;20366;-80
2023/03/08 00:53:02;;;;;;;53.72;33.90;;;;;;;-1.46;100.00;100078.06;6276037;22;20057;-79
2023/03/08 00:55:28;;;;;;;51.30;33.47;;;;;;;-1.43;100.00;100074.59;6276302;22;20046;-79
2023/03/08 00:57:53;;;;;;;49.92;33.60;;;;;;;-1.46;100.00;100054.44;6249135;22;19999;-80
2023/03/08 01:00:19;;;;;;;52.08;35.65;;;;;;;-1.55;100.00;100040.31;6275706;22;20003;-80
2023/03/08 01:02:44;;;;;;;54.85;35.45;;;;;;;-1.49;100.00;100052.78;6275983;22;20007;-80
2023/03/08 01:05:10;;;;;;;54.15;35.92;;;;;;;-1.40;100.00;100064.38;6276059;22;20373;-79
2023/03/08 01:07:35;;;;;;;58.40;36.72;;;;;;;-1.37;100.00;100069.38;6275468;22;20010;-78
2023/03/08 01:10:02;;;;;;;55.78;37.70;;;;;;;-1.47;100.00;100050.25;6276096;22;20000;-78
2023/03/08 01:12:28;;;;;;;58.35;38.15;;;;;;;-1.29;100.00;100059.84;6276514;22;20078;-81
2023/03/08 01:14:53;;;;;;;58.60;38.60;;;;;;;-1.27;100.00;100049.72;6275994;22;20369;-80
2023/03/08 01:17:18;;;;;;;59.00;38.05;;;;;;;-1.27;100.00;100048.00;6275773;22;20004;-80
2023/03/08 01:19:44;;;;;;;59.25;37.65;;;;;;;-1.24;100.00;100040.31;6275699;22;20085;-80
2023/03/08 01:22:09;;;;;;;56.00;36.58;;;;;;;-1.25;100.00;100045.44;6275857;22;20011;-79
2023/03/08 01:24:35;;;;;;;59.55;37.13;;;;;;;-1.29;100.00;100037.06;6276172;22;20007;-78
2023/03/08 01:27:00;;;;;;;55.75;36.42;;;;;;;-1.26;100.00;100033.66;6276626;22;20053;-76
2023/03/08 01:29:26;;;;;;;51.58;35.13;;;;;;;-1.62;100.00;99975.50;6276321;22;20004;-78
2023/03/08 01:31:52;;;;;;;51.80;34.10;;;;;;;-1.32;100.00;100034.63;6276189;22;20077;-79
2023/03/08 01:34:18;;;;;;;50.15;33.03;;;;;;;-1.34;100.00;100021.19;6276014;22;20003;-78
2023/03/08 01:36:44;;;;;;;55.95;34.88;;;;;;;-1.36;100.00;100017.03;6276083;22;20007;-79
2023/03/08 01:39:11;;;;;;;52.85;35.03;;;;;;;-1.34;100.00;100011.06;6276061;22;20004;-78
2023/03/08 01:41:37;;;;;;;51.30;33.70;;;;;;;-1.33;100.00;100006.81;6276397;22;20007;-78
2023/03/08 01:44:02;;;;;;;48.42;34.30;;;;;;;-1.57;100.00;99972.88;6276158;22;20007;-78
2023/03/08 01:46:33;;;;;;;49.92;35.42;;;;;;;-1.30;100.00;100002.47;6276089;22;20007;-78
2023/03/08 01:49:02;;;;;;;52.35;33.40;;;;;;;-1.23;100.00;100005.69;6276007;22;20010;-78
2023/03/08 01:51:39;;;;;;;53.72;34.53;;;;;;;-1.19;100.00;99992.06;6276155;22;20071;-77
2023/03/08 01:54:10;;;;;;;48.95;34.25;;;;;;;-1.21;100.00;99994.63;6275648;22;20000;-79
2023/03/08 01:56:37;;;;;;;51.35;34.55;;;;;;;-1.13;100.00;99986.00;6248466;22;20008;-79
2023/03/08 01:59:02;;;;;;;55.67;35.50;;;;;;;-1.22;100.00;99974.41;6275715;22;20074;-77
2023/03/08 02:01:28;;;;;;;54.10;36.03;;;;;;;-1.24;100.00;99969.41;6276105;22;20038;-79
2023/03/08 02:03:53;;;;;;;57.38;36.35;;;;;;;-1.12;100.00;99974.97;6247979;22;20011;-80
2023/03/08 02:06:20;;;;;;;58.10;34.25;;;;;;;-1.07;100.00;99979.06;6275806;22;20376;-80
2023/03/08 02:08:46;;;;;;;57.67;37.40;;;;;;;-0.97;100.00;99982.16;6275485;22;20004;-77
2023/03/08 02:11:13;;;;;;;59.92;35.63;;;;;;;-1.31;100.00;99929.09;6275858;22;20000;-79
2023/03/08 02:13:38;;;;;;;61.25;35.85;;;;;;;-1.48;100.00;99899.16;6275434;22;20043;-78
2023/03/08 02:16:06;;;;;;;57.28;35.75;;;;;;;-1.28;100.00;99911.25;6275707;22;20033;-78
2023/03/08 02:18:32;;;;;;;59.25;35.78;;;;;;;-0.84;100.00;99969.94;6275263;22;20000;-80
2023/03/08 02:20:57;;;;;;;55.30;34.17;;;;;;;-0.83;100.00;99958.91;6275827;22;19999;-79
2023/03/08 02:23:24;;;;;;;55.70;34.67;;;;;;;-0.94;100.00;99944.88;6275476;22;20070;-80
2023/03/08 02:25:57;;;;;;;61.67;36.85;;;;;;;-0.82;100.00;99948.72;6275446;22;20333;-80
2023/03/08 02:28:24;;;;;;;61.08;36.05;;;;;;;-0.79;100.00;99946.09;6276606;22;20057;-79
2023/03/08 02:30:50;;;;;;;63.40;37.08;;;;;;;-0.77;100.00;99946.91;6250007;22;19999;-80
2023/03/08 02:33:17;;;;;;;59.65;36.95;;;;;;;-0.76;100.00;99940.94;6277385;22;20035;-76
2023/03/08 02:35:43;;;;;;;57.90;35.05;;;;;;;-0.75;100.00;99944.31;6277056;22;19999;-80
2023/03/08 02:38:11;;;;;;;61.97;35.97;;;;;;;-0.87;100.00;99922.72;6249962;22;20003;-80
2023/03/08 02:40:37;;;;;;;59.10;34.88;;;;;;;-0.83;100.00;99914.13;6277018;22;20003;-78
2023/03/08 02:43:03;;;;;;;60.83;36.70;;;;;;;-0.70;100.00;99933.13;6277209;22;20007;-80
2023/03/08 02:45:29;;;;;;;64.85;34.63;;;;;;;-0.66;100.00;99931.34;6277084;22;20008;-80
2023/03/08 02:47:55;;;;;;;66.70;37.92;;;;;;;-0.63;100.00;99923.66;6277311;22;20004;-81
2023/03/08 02:50:20;;;;;;;59.58;34.95;;;;;;;-0.73;100.00;99902.81;6277303;22;20027;-79
2023/03/08 02:52:45;;;;;;;68.13;37.08;;;;;;;-0.62;100.00;99923.59;6249155;22;20034;-80
2023/03/08 02:55:11;;;;;;;62.53;35.80;;;;;;;-0.53;100.00;99924.19;6276915;22;20007;-79
2023/03/08 02:58:12;;;;;;;60.97;36.78;;;;;;;-0.49;100.00;99926.59;6263212;22;20023;-79
2023/03/08 03:05:29;;;;;;;69.97;38.13;;;;;;;-0.39;100.00;99920.34;6277243;22;20031;-79
2023/03/08 03:11:49;;;;;;;72.45;37.50;;;;;;;-1.10;100.00;99795.88;6277202;22;20476;-78
2023/03/08 03:17:49;;;;;;;76.05;39.20;;;;;;;-1.16;100.00;99759.75;6276384;22;20014;-80
2023/03/08 03:23:44;;;;;;;69.78;37.15;;;;;;;-1.49;100.00;99694.97;6183738;23;20040;-80
2023/03/08 03:26:18;;;;;;;65.00;34.75;;;;;;;-0.42;100.00;99864.63;6183022;23;20013;-78
2023/03/08 03:28:43;;;;;;;77.18;36.42;;;;;;;-0.21;100.00;99887.59;6183534;23;20342;-80
2023/03/08 03:31:11;;;;;;;71.38;36.15;;;;;;;-0.42;100.00;99858.72;6183456;23;20047;-80
2023/03/08 03:33:38;;;;;;;76.32;36.28;;;;;;;-0.25;100.00;99875.91;6183213;23;20511;-80
2023/03/08 03:36:04;;;;;;;73.38;36.35;;;;;;;-0.25;100.00;99865.78;6183232;23;20005;-79
2023/03/08 03:38:29;;;;;;;74.00;35.20;;;;;;;-0.18;100.00;99862.97;6183649;23;20012;-80
2023/03/08 03:41:04;;;;;;;69.88;35.53;;;;;;;-0.33;100.00;99823.72;6183376;23;20009;-80
2023/03/08 03:43:30;;;;;;;75.13;37.90;;;;;;;-0.33;100.00;99820.38;6183413;23;20013;-80
2023/03/08 03:46:00;;;;;;;71.85;34.83;;;;;;;-0.19;100.00;99851.19;6183318;23;20398;-80
2023/03/08 03:48:26;;;;;;;74.57;35.70;;;;;;;-0.22;100.00;99843.66;6183176;23;20360;-80
2023/03/08 03:51:00;;;;;;;69.22;34.42;;;;;;;-0.34;100.00;99811.09;6183038;23;20005;-81
2023/03/08 03:53:28;;;;;;;70.45;35.10;;;;;;;-0.21;100.00;99844.47;6183134;23;20005;-79
2023/03/08 03:55:54;;;;;;;67.57;34.63;;;;;;;-0.38;100.00;99819.72;6182808;23;20013;-80
2023/03/08 03:58:19;;;;;;;69.35;34.17;;;;;;;-0.21;100.00;99852.09;6255165;22;20010;-79
2023/03/08 04:00:45;;;;;;;65.35;33.75;;;;;;;-0.36;100.00;99812.88;6276709;22;20038;-80
2023/03/08 04:03:10;;;;;;;68.80;34.75;;;;;;;-0.22;100.00;99837.75;6249568;22;20459;-80
2023/03/08 04:05:36;;;;;;;70.60;34.10;;;;;;;-0.41;100.00;99805.41;6276551;22;20010;-78
2023/03/08 04:08:01;;;;;;;75.20;36.05;;;;;;;-0.21;100.00;99835.16;6276999;22;20004;-80
2023/03/08 04:10:26;;;;;;;69.20;34.15;;;;;;;-0.33;100.00;99812.75;6276552;22;20003;-81
2023/03/08 04:12:52;;;;;;;74.57;35.90;;;;;;;-0.36;100.00;99798.47;6249792;22;20000;-79
2023/03/08 04:15:21;;;;;;;69.70;35.88;;;;;;;-0.19;100.00;99823.28;6276851;22;20007;-79
2023/03/08 04:50:22;;;;;;;65.90;33.97;;;;;;;-0.73;100.00;99645.97;6306966;22;20023;-79
2023/03/08 04:59:33;;;;;;;55.20;30.83;;;;;;;0.03;100.00;99747.19;6214915;23;20456;-78
2023/03/08 05:02:33;;;;;;;54.55;32.33;;;;;;;0.03;100.00;99739.56;6213411;23;20059;-79
2023/03/08 05:09:16;;;;;;;47.05;28.17;;;;;;;0.08;100.00;99725.00;6275804;22;20018;-78
2023/03/08 05:12:25;;;;;;;46.88;27.30;;;;;;;0.11;100.00;99726.59;6275631;22;20000;-79
2023/03/08 05:27:02;;;;;;;44.92;26.13;;;;;;;0.12;100.00;99698.63;6263146;22;20453;-77
2023/03/08 05:30:17;;;;;;;41.08;25.23;;;;;;;0.13;100.00;99691.84;6211326;23;20038;-79
2023/03/08 05:32:46;;;;;;;43.55;25.33;;;;;;;0.10;100.00;99685.16;6212940;23;20030;-80
2023/03/08 05:35:39;;;;;;;41.28;24.25;;;;;;;0.13;100.00;99685.03;6212611;23;20123;-77
2023/03/08 05:38:16;;;;;;;44.25;25.70;;;;;;;-0.98;100.00;99492.28;6212394;23;20423;-79
2023/03/08 05:40:44;;;;;;;45.53;24.20;;;;;;;-0.91;100.00;99503.00;6212461;23;20001;-80
2023/03/08 05:43:12;;;;;;;45.80;24.23;;;;;;;-0.99;100.00;99484.72;6212397;23;20470;-80
2023/03/08 05:49:13;;;;;;;39.78;23.58;;;;;;;-0.32;100.00;99571.72;6153157;23;20041;-79
2023/03/08 05:51:44;;;;;;;;;;;;;;;0.22;100.00;99649.16;6153184;23;20009;-78
2023/03/08 05:54:42;;;;;;;38.50;23.17;;;;;;;0.18;100.00;99646.78;6152566;23;19908;-79
2023/03/08 06:04:29;;;;;;;42.13;24.27;;;;;;;-1.20;100.00;99407.81;6183354;23;20052;-80
2023/03/08 06:06:55;;;;;;;41.10;23.60;;;;;;;-0.72;100.00;99478.63;6184165;23;20574;-79
2023/03/08 06:09:50;;;;;;;44.35;24.30;;;;;;;0.15;100.00;99618.97;6184098;23;20009;-79
2023/03/08 06:12:16;;;;;;;39.80;24.48;;;;;;;-0.77;100.00;99472.09;6183947;23;20017;-79
2023/03/08 06:18:45;;;;;;;45.17;25.15;;;;;;;0.13;100.00;99613.97;6184365;23;20020;-79
2023/03/08 06:33:45;;;;;;;34.97;21.52;;;;;;;0.14;100.00;99613.06;6206907;23;20040;-76
2023/03/08 06:36:17;;;;;;;32.35;18.85;;;;;;;-0.39;100.00;99539.06;6189876;23;20009;-80
2023/03/08 06:38:58;;;;;;;;;;;;;;;0.16;100.00;99615.56;6216660;23;20001;-79
2023/03/08 06:41:24;;;;;;;32.10;19.27;;;;;;;-0.26;100.00;99549.56;6215886;23;19907;-78
2023/03/08 06:43:49;;;;;;;31.92;17.70;;;;;;;0.11;100.00;99600.50;6189452;23;20000;-81
2023/03/08 06:46:17;;;;;;;27.08;16.45;;;;;;;-0.08;100.00;99569.13;6215763;23;20378;-81
2023/03/08 06:48:42;;;;;;;27.25;16.38;;;;;;;0.07;100.00;99596.44;6216125;23;20001;-80
2023/03/08 06:51:08;;;;;;;25.58;15.30;;;;;;;0.06;100.00;99602.41;6189319;23;20009;-78
2023/03/08 06:53:37;;;;;;;24.30;14.75;;;;;;;0.04;100.00;99600.81;6216403;23;20085;-78
2023/03/08 06:56:05;;;;;;;28.00;16.42;;;;;;;0.03;100.00;99599.16;6216151;23;20010;-80
2023/03/08 06:58:31;;;;;;;31.48;16.40;;;;;;;0.04;100.00;99606.72;6215794;23;20068;-80
2023/03/08 07:01:00;;;;;;;27.55;14.70;;;;;;;0.04;100.00;99604.19;6216476;23;20356;-82
2023/03/08 07:03:26;;;;;;;21.40;13.23;;;;;;;-0.04;100.00;99596.03;6215955;23;20059;-80
2023/03/08 07:05:52;;;;;;;21.92;12.15;;;;;;;0.03;100.00;99611.84;6216169;23;20016;-81
2023/03/08 07:08:17;;;;;;;20.55;11.88;;;;;;;-0.19;100.00;99577.16;6216221;23;20414;-80
2023/03/08 07:10:42;;;;;;;23.02;12.20;;;;;;;-0.17;100.00;99577.09;6215929;23;20408;-81
2023/03/08 07:15:43;;;;;;;23.63;12.40;;;;;;;-0.14;100.00;99582.06;6270884;22;20346;-81
2023/03/08 07:18:14;;;;;;;24.55;12.57;;;;;;;-0.01;100.00;99590.81;6276978;22;20006;-80
2023/03/08 07:20:39;;;;;;;20.83;11.75;;;;;;;-0.46;100.00;99507.22;6277452;22;20425;-81
2023/03/08 07:23:20;;;;;;;24.38;12.98;;;;;;;-0.94;100.00;99430.47;6275503;22;20003;-78
2023/03/08 07:25:46;;;;;;;26.63;12.23;;;;;;;-0.43;100.00;99509.63;6277874;22;20045;-77
2023/03/08 07:28:11;;;;;;;20.38;11.00;;;;;;;-0.43;100.00;99507.91;6277206;22;20321;-78
2023/03/08 07:30:51;;;;;;;17.00;10.18;;;;;;;-0.03;100.00;99575.66;6276899;22;20011;-77
2023/03/08 07:33:33;;;;;;;14.25;9.38;;;;;;;-0.74;100.00;99457.59;6277169;22;20429;-80
2023/03/08 07:36:02;;;;;;;22.52;9.27;;;;;;;-1.00;100.00;99414.66;6249168;22;20372;-79
2023/03/08 07:38:40;;;;;;;16.33;9.43;;;;;;;-0.67;100.00;99463.25;6278058;22;20035;-78
2023/03/08 07:41:21;;;;;;;13.48;8.57;;;;;;;-0.05;100.00;99567.28;6276472;22;20380;-79
2023/03/08 07:48:56;;;;;;;16.90;9.23;;;;;;;-1.32;100.00;99347.50;6235282;22;20350;-80
2023/03/08 07:51:37;;;;;;;17.23;8.95;;;;;;;-1.34;100.00;99332.38;6244151;23;20012;-80
2023/03/08 07:54:38;;;;;;;18.00;9.47;;;;;;;-0.04;100.00;99556.25;6245896;22;20436;-77
2023/03/08 07:57:16;;;;;;;18.73;10.20;;;;;;;-1.32;100.00;99350.88;6246148;22;20000;-77
2023/03/08 07:59:41;;;;;;;16.83;10.13;;;;;;;-0.48;100.00;99484.47;6243770;23;20243;-78
2023/03/08 08:02:16;;;;;;;17.73;10.48;;;;;;;-0.39;100.00;99499.31;6246503;22;20007;-77
2023/03/08 08:04:41;;;;;;;18.70;9.98;;;;;;;-1.25;100.00;99364.97;6245003;23;20303;-79
2023/03/08 08:07:29;;;;;;;17.48;10.75;;;;;;;-0.12;100.00;99547.28;6245829;23;20000;-77
2023/03/08 08:10:07;;;;;;;20.38;11.70;;;;;;;-1.26;100.00;99359.97;6245864;23;20004;-76
2023/03/08 08:12:33;;;;;;;18.73;11.45;;;;;;;-0.32;100.00;99502.41;6245804;23;20007;-80
2023/03/08 08:15:08;;;;;;;18.88;11.23;;;;;;;-0.08;100.00;99521.75;6245255;23;20008;-80
2023/03/08 08:17:42;;;;;;;19.02;11.23;;;;;;;-1.03;100.00;99367.47;6245669;23;20000;-81
2023/03/08 08:20:13;;;;;;;17.73;11.18;;;;;;;-0.05;100.00;99514.00;6245977;23;20046;-79
2023/03/08 08:22:45;;;;;;;15.75;10.07;;;;;;;-0.93;100.00;99376.38;6254370;22;20337;-85
2023/03/08 08:25:54;;;;;;;18.33;10.60;;;;;;;-0.05;100.00;99519.09;6248862;22;20008;-82
2023/03/08 08:28:40;;;;;;;21.40;11.52;;;;;;;-0.09;100.00;99525.19;6222633;22;20010;-83
2023/03/08 08:31:17;;;;;;;17.83;10.55;;;;;;;-0.13;100.00;99520.28;6276005;22;20004;-83
2023/03/08 08:34:16;;;;;;;16.23;10.38;;;;;;;-0.17;100.00;99513.69;6276421;22;20004;-84
2023/03/08 08:36:45;;;;;;;18.85;10.05;;;;;;;-1.17;100.00;99357.06;6276337;22;20007;-84
2023/03/08 08:39:15;;;;;;;17.13;9.00;;;;;;;-0.87;100.00;99406.56;6276571;22;20079;-81
2023/03/08 08:41:55;;;;;;;16.73;8.73;;;;;;;-1.06;100.00;99384.53;6249508;22;20364;-82
2023/03/08 08:44:21;;;;;;;16.55;8.65;;;;;;;-0.84;100.00;99425.06;6276097;22;20443;-80
2023/03/08 08:46:46;;;;;;;18.15;9.38;;;;;;;-1.05;100.00;99388.69;6276120;22;20000;-82
2023/03/08 08:49:11;;;;;;;17.13;9.10;;;;;;;-0.35;100.00;99498.31;6276077;22;20007;-82
2023/03/08 08:51:37;;;;;;;15.98;9.85;;;;;;;-0.25;100.00;99491.16;6276617;22;20000;-83
2023/03/08 08:54:02;;;;;;;17.45;10.25;;;;;;;-0.18;100.00;99487.50;6276368;22;19999;-81
2023/03/08 08:56:28;;;;;;;14.05;9.27;;;;;;;-0.33;100.00;99462.72;6276515;22;20011;-82
2023/03/08 08:58:59;;;;;;;17.45;10.73;;;;;;;-0.08;100.00;99501.44;6276165;22;20014;-80
2023/03/08 09:01:27;;;;;;;15.88;9.95;;;;;;;-0.10;100.00;99507.44;6275851;22;20018;-83
2023/03/08 09:03:55;;;;;;;16.75;10.85;;;;;;;-0.16;100.00;99511.06;6282043;22;20387;-80
2023/03/08 09:06:22;;;;;;;16.20;9.48;;;;;;;-0.36;100.00;99493.28;6281375;22;20007;-81
2023/03/08 09:08:49;;;;;;;13.43;8.98;;;;;;;-0.27;100.00;99512.41;6276502;22;20376;-83
2023/03/08 09:11:15;;;;;;;13.70;9.10;;;;;;;-0.27;100.00;99515.75;6276075;22;20035;-79
2023/03/08 09:13:41;;;;;;;14.80;9.30;;;;;;;-0.49;100.00;99469.28;6248820;22;20003;-77
2023/03/08 09:16:19;;;;;;;13.93;8.15;;;;;;;-0.40;100.00;99487.50;6275877;22;20004;-81
2023/03/08 09:18:45;;;;;;;12.85;8.23;;;;;;;-0.33;100.00;99476.22;6276023;22;20487;-78
2023/03/08 09:21:11;;;;;;;13.55;7.72;;;;;;;-0.28;100.00;99467.63;6276380;22;20000;-81
2023/03/08 09:23:36;;;;;;;16.48;9.82;;;;;;;-0.27;100.00;99459.13;6275159;22;20065;-79
2023/03/08 09:26:03;;;;;;;17.33;10.00;;;;;;;-0.19;100.00;99459.66;6276328;22;20060;-80
2023/03/08 09:28:29;;;;;;;18.40;11.05;;;;;;;-0.37;100.00;99428.25;6276096;22;20003;-81
2023/03/08 09:30:55;;;;;;;17.77;12.05;;;;;;;-0.15;100.00;99438.31;6275983;22;20129;-77
2023/03/08 09:33:20;;;;;;;19.20;12.10;;;;;;;-0.21;100.00;99434.31;6275990;22;20061;-81
2023/03/08 09:35:57;;;;;;;20.25;12.07;;;;;;;-0.14;100.00;99432.38;6276137;22;20000;-82
2023/03/08 09:38:23;;;;;;;21.95;13.23;;;;;;;-0.07;100.00;99443.91;6277614;22;20310;-79
2023/03/08 09:41:03;;;;;;;24.10;15.45;;;;;;;-0.10;100.00;99422.03;6250455;22;20039;-81
2023/03/08 09:43:53;;;;;;;24.20;15.13;;;;;;;-0.29;100.00;99393.25;6278118;22;20004;-82
2023/03/08 09:46:26;;;;;;;23.33;14.65;;;;;;;-0.28;100.00;99420.25;6277547;22;20007;-83
2023/03/08 09:48:59;;;;;;;25.23;14.57;;;;;;;-0.32;100.00;99424.63;6277985;22;20004;-81
2023/03/08 09:51:35;;;;;;;25.58;16.70;;;;;;;-0.64;100.00;99365.06;6278024;22;20482;-81
2023/03/08 09:54:12;;;;;;;26.77;16.83;;;;;;;-0.38;100.00;99365.72;6277523;22;20440;-83
2023/03/08 09:56:44;;;;;;;29.65;16.90;;;;;;;0.12;100.00;99434.63;6278143;22;20035;-83
2023/03/08 09:59:20;;;;;;;27.75;17.33;;;;;;;0.04;100.00;99401.16;6278043;22;20000;-81
2023/03/08 10:01:57;;;;;;;28.65;17.27;;;;;;;0.24;100.00;99406.19;6277406;22;20011;-80
2023/03/08 10:04:51;;;;;;;30.65;19.08;;;;;;;0.22;100.00;99399.53;6277622;22;20329;-82
2023/03/08 10:07:54;;;;;;;30.98;19.00;;;;;;;0.27;100.00;99397.59;6277920;22;20000;-81
2023/03/08 10:10:40;;;;;;;33.38;18.17;;;;;;;0.31;100.00;99403.41;6250182;22;20008;-80
2023/03/08 10:13:29;;;;;;;31.77;19.15;;;;;;;0.44;100.00;99404.50;6277812;22;20504;-78
2023/03/08 10:15:59;;;;;;;29.58;18.30;;;;;;;0.52;100.00;99402.44;6277441;22;20004;-78
2023/03/08 10:18:46;;;;;;;31.45;18.23;;;;;;;0.56;100.00;99403.94;6277533;22;20011;-78
2023/03/08 10:21:16;;;;;;;31.90;19.25;;;;;;;0.56;100.00;99398.84;6277705;22;20003;-78
2023/03/08 10:23:44;;;;;;;30.02;18.92;;;;;;;0.66;100.00;99389.94;6277734;22;20014;-78
2023/03/08 10:26:14;;;;;;;31.45;20.35;;;;;;;0.96;100.00;99417.38;6277899;22;20031;-79
2023/03/08 10:28:39;;;;;;;30.48;18.73;;;;;;;0.90;100.00;99413.41;6277916;22;20045;-78
2023/03/08 10:31:29;;;;;;;28.25;18.45;;;;;;;0.75;100.00;99396.31;6277916;22;20004;-79
2023/03/08 10:34:18;;;;;;;30.65;19.70;;;;;;;0.73;100.00;99401.47;6154290;23;20009;-79
2023/03/08 10:36:56;;;;;;;29.38;18.52;;;;;;;0.48;100.00;99347.56;6154272;23;20017;-77
2023/03/08 10:39:22;;;;;;;28.52;18.70;;;;;;;0.70;100.00;99371.13;6154180;23;20009;-81
2023/03/08 10:41:59;;;;;;;27.60;18.42;;;;;;;0.84;100.00;99368.75;6153871;23;20013;-81
2023/03/08 10:44:35;;;;;;;27.98;18.95;;;;;;;0.90;100.00;99365.13;6153971;23;20014;-80
2023/03/08 10:47:16;;;;;;;27.20;17.65;;;;;;;0.90;100.00;99377.00;6129103;23;20005;-78
2023/03/08 10:49:42;;;;;;;26.73;18.08;;;;;;;0.94;100.00;99374.25;6153512;23;20081;-78
2023/03/08 10:52:27;;;;;;;27.55;18.67;;;;;;;0.83;100.00;99346.78;6154178;23;20020;-80
2023/03/08 10:55:05;;;;;;;27.55;18.45;;;;;;;1.11;100.00;99360.75;6153853;23;20181;-79
2023/03/08 10:57:31;;;;;;;26.52;18.35;;;;;;;1.20;100.00;99365.41;6153912;23;20097;-81
2023/03/08 11:00:11;;;;;;;25.48;16.70;;;;;;;1.38;100.00;99371.31;6154107;23;20009;-77
2023/03/08 11:02:37;;;;;;;21.42;15.63;;;;;;;1.38;100.00;99384.84;6153876;23;20013;-81
2023/03/08 11:05:16;;;;;;;21.15;15.43;;;;;;;1.40;100.00;99383.06;6153784;23;20041;-77
2023/03/08 11:07:53;;;;;;;22.95;15.10;;;;;;;1.57;100.00;99387.31;6154146;23;20036;-80
2023/03/08 11:10:22;;;;;;;20.98;15.07;;;;;;;1.76;100.00;99396.56;6187092;22;20513;-79
2023/03/08 11:13:00;;;;;;;19.23;13.38;;;;;;;1.40;100.00;99337.28;6276173;22;20000;-79
2023/03/08 11:15:29;;;;;;;19.50;13.65;;;;;;;1.62;100.00;99371.81;6278032;22;20414;-79
2023/03/08 11:18:02;;;;;;;19.45;13.77;;;;;;;1.65;100.00;99381.84;6277158;22;20426;-79
2023/03/08 11:20:40;;;;;;;19.63;14.27;;;;;;;1.63;100.00;99366.66;6277243;22;20093;-78
2023/03/08 11:23:13;;;;;;;16.08;11.63;;;;;;;1.45;100.00;99344.66;6277062;22;20008;-80
2023/03/08 11:26:00;;;;;;;17.30;13.60;;;;;;;1.62;100.00;99384.53;6276793;22;20022;-79
2023/03/08 11:28:50;;;;;;;17.33;12.50;;;;;;;1.69;100.00;99381.63;6276983;22;20008;-79
2023/03/08 11:32:01;;;;;;;15.57;11.00;;;;;;;1.53;100.00;99392.63;6249412;22;20386;-80
2023/03/08 11:38:29;;;;;;;14.55;10.48;;;;;;;1.56;100.00;99364.47;6155334;23;20072;-80
2023/03/08 11:41:23;;;;;;;14.70;10.73;;;;;;;1.57;100.00;99363.59;6066958;23;20098;-79
2023/03/08 11:44:12;;;;;;;15.82;11.27;;;;;;;1.61;100.00;99365.91;6065736;23;20011;-80
2023/03/08 11:47:16;;;;;;;15.98;11.05;;;;;;;1.66;100.00;99360.59;6065887;23;20010;-78
2023/03/08 11:49:53;;;;;;;16.90;11.85;;;;;;;1.68;100.00;99346.09;5980551;24;20008;-79
2023/03/08 11:58:59;;;;;;;15.43;11.20;;;;;;;1.76;100.00;99338.03;6276829;22;20069;-79
2023/03/08 12:02:02;;;;;;;17.17;11.10;;;;;;;1.73;100.00;99337.31;6249394;22;20138;-79
2023/03/08 12:11:23;;;;;;;13.57;10.13;;;;;;;0.44;100.00;99112.47;6246140;23;20023;-80
2023/03/08 12:24:24;;;;;;;13.20;9.43;;;;;;;0.67;100.00;99122.31;6245977;23;20023;-79
2023/03/08 12:27:53;;;;;;;;;;;;;;;;;;;;;
2023/03/08 12:34:09;;;;;;;11.40;8.20;;;;;;;0.43;100.00;99105.75;6182791;23;20386;-78
2023/03/08 12:40:39;;;;;;;12.15;7.22;;;;;;;0.24;100.00;99126.94;6182922;23;20048;-81
2023/03/08 12:50:46;;;;;;;13.00;9.17;;;;;;;1.66;100.00;99307.16;6275988;22;20026;-81
2023/03/08 12:54:07;;;;;;;13.48;8.98;;;;;;;1.78;100.00;99286.19;6276095;22;20012;-79
2023/03/08 13:00:38;;;;;;;12.95;8.25;;;;;;;2.29;100.00;99269.06;6276513;22;20096;-78
2023/03/08 13:10:36;;;;;;;;;;;;;;;;;;;;;
2023/03/08 13:19:50;;;;;;;13.60;9.18;;;;;;;1.10;100.00;99112.53;6275375;22;20123;-82
2023/03/08 13:33:13;;;;;;;11.73;8.20;;;;;;;2.15;100.00;99282.53;6276088;22;20494;-82
2023/03/08 13:46:16;;;;;;;12.93;8.88;;;;;;;0.97;100.00;99114.03;6277249;22;20089;-86
2023/03/08 13:49:16;;;;;;;13.07;9.15;;;;;;;1.98;100.00;99291.06;6281798;22;20019;-81
2023/03/08 13:52:31;;;;;;;13.52;8.65;;;;;;;1.96;100.00;99292.84;6212041;23;20019;-80
2023/03/08 14:06:29;;;;;;;;;;;;;;;;;;;;;
2023/03/08 14:13:08;;;;;;;13.05;8.95;;;;;;;2.07;100.00;99268.56;6008378;23;20031;-81
2023/03/08 14:18:42;;;;;;;13.35;9.18;;;;;;;2.08;100.00;99254.94;6010533;23;20392;-79
2023/03/08 14:21:14;;;;;;;;;;;;;;;2.20;100.00;99242.38;6008359;23;20012;-76
2023/03/08 14:23:44;;;;;;;13.57;9.55;;;;;;;2.15;100.00;99231.59;6037996;23;20001;-79
2023/03/08 14:26:23;;;;;;;12.15;8.85;;;;;;;2.13;100.00;99227.50;6066708;23;20015;-78
2023/03/08 14:28:48;;;;;;;13.63;9.15;;;;;;;2.17;100.00;99246.81;6066668;23;20034;-79
2023/03/08 14:31:24;;;;;;;13.43;8.75;;;;;;;1.96;100.00;99224.13;6066847;23;20426;-80
2023/03/08 14:34:00;;;;;;;12.07;8.30;;;;;;;1.92;100.00;99214.19;6066531;23;20090;-80
2023/03/08 14:36:28;;;;;;;11.43;7.68;;;;;;;2.04;100.00;99256.81;6066514;23;20011;-80
2023/03/08 14:38:54;;;;;;;12.10;8.07;;;;;;;1.75;100.00;99225.25;6148874;22;20003;-80
2023/03/08 14:41:35;;;;;;;11.68;7.88;;;;;;;1.95;100.00;99257.28;6276961;22;20004;-80
2023/03/08 14:44:02;;;;;;;13.13;8.25;;;;;;;1.81;100.00;99230.03;6277692;22;20004;-79
2023/03/08 14:46:28;;;;;;;14.68;8.32;;;;;;;1.95;100.00;99253.03;6277246;22;20007;-80
2023/03/08 14:49:03;;;;;;;11.50;7.75;;;;;;;1.76;100.00;99226.88;6276892;22;20008;-79
2023/03/08 14:51:38;;;;;;;12.40;8.07;;;;;;;1.99;100.00;99257.06;6276899;22;20074;-78
2023/03/08 14:54:18;;;;;;;11.88;8.00;;;;;;;1.98;100.00;99257.97;6277298;22;20045;-79
2023/03/08 14:56:45;;;;;;;11.98;7.95;;;;;;;1.76;100.00;99226.88;6275661;22;20034;-78
2023/03/08 14:59:11;;;;;;;12.27;8.35;;;;;;;1.93;100.00;99271.84;6277626;22;20000;-78
2023/03/08 15:01:36;;;;;;;13.23;8.55;;;;;;;1.90;100.00;99269.47;6276536;22;20376;-79
2023/03/08 15:19:16;;;;;;;12.30;7.80;;;;;;;0.84;100.00;99096.06;6215037;23;20071;-78
2023/03/08 15:21:51;;;;;;;12.40;7.70;;;;;;;0.75;100.00;99088.91;6215542;23;20039;-76
2023/03/08 15:31:28;;;;;;;13.73;8.38;;;;;;;1.72;100.00;99261.88;6217783;22;20008;-79